Time;durP1;ratioP1;P1;durP2;ratioP2;P2;SDS_P1;SDS_P2;PMS_P1;PMS_P2;Temp;Humidity;BMP_temperature;BMP_pressure;BME280_temperature;BME280_humidity;BME280_pressure;Samples;Min_cycle;Max_cycle;Signal;HPM_P1;HPM_P2
2022/10/11 00:01:09;;;;;;;4.93;2.30;;;11.30;99.90;;;;;;5008307;28;20511;-67
2022/10/11 00:03:39;;;;;;;3.57;1.57;;;11.20;99.90;;;;;;4999074;28;20437;-68
2022/10/11 00:06:08;;;;;;;3.73;1.77;;;11.00;99.90;;;;;;5012554;28;20463;-68
2022/10/11 00:08:37;;;;;;;5.30;3.40;;;11.00;99.90;;;;;;4993326;28;20404;-67
2022/10/11 00:11:07;;;;;;;3.30;2.00;;;10.90;99.90;;;;;;4992858;28;20457;-68
2022/10/11 00:13:36;;;;;;;12.03;2.03;;;10.80;99.90;;;;;;4994142;28;20439;-66
2022/10/11 00:16:09;;;;;;;7.57;2.63;;;10.80;99.90;;;;;;4993853;28;20465;-67
2022/10/11 00:18:39;;;;;;;4.30;1.60;;;10.70;99.90;;;;;;5009698;28;20911;-67
2022/10/11 00:21:11;;;;;;;6.03;2.43;;;10.70;99.90;;;;;;4996526;28;20432;-66
2022/10/11 00:23:40;;;;;;;3.33;1.43;;;10.70;99.90;;;;;;4994189;28;20835;-67
2022/10/11 00:26:11;;;;;;;5.60;2.60;;;10.60;99.90;;;;;;5007194;28;20514;-68
2022/10/11 00:28:40;;;;;;;7.80;1.50;;;10.60;99.90;;;;;;4999293;28;20415;-67
2022/10/11 00:31:10;;;;;;;7.10;2.10;;;10.50;99.90;;;;;;4996095;28;20544;-67
2022/10/11 00:33:40;;;;;;;8.37;2.23;;;10.40;99.90;;;;;;4994288;28;20980;-66
2022/10/11 00:36:12;;;;;;;4.27;1.90;;;10.30;99.90;;;;;;4994431;28;20472;-67
2022/10/11 00:38:41;;;;;;;8.23;2.10;;;10.30;99.90;;;;;;5004656;28;20433;-66
2022/10/11 00:41:10;;;;;;;6.03;2.10;;;10.30;99.90;;;;;;5000994;28;20476;-66
2022/10/11 00:43:39;;;;;;;9.53;2.43;;;10.20;99.90;;;;;;5000335;28;20468;-67
2022/10/11 00:46:27;;;;;;;3.37;2.10;;;10.20;99.90;;;;;;4998836;28;20886;-67
2022/10/11 00:49:03;;;;;;;2.73;1.50;;;10.10;99.90;;;;;;4993210;28;20432;-67
2022/10/11 00:51:43;;;;;;;9.20;2.07;;;10.10;99.90;;;;;;4994681;28;20472;-67
2022/10/11 00:54:16;;;;;;;6.40;1.50;;;10.00;99.90;;;;;;4995729;28;20828;-67
2022/10/11 00:56:48;;;;;;;5.43;2.27;;;9.90;99.90;;;;;;5008309;28;20478;-68
2022/10/11 00:59:22;;;;;;;5.63;1.30;;;9.90;99.90;;;;;;4998802;28;20425;-68
2022/10/11 01:01:50;;;;;;;6.83;2.30;;;9.80;99.90;;;;;;5007694;28;20439;-68
2022/10/11 01:04:21;;;;;;;4.90;1.30;;;9.70;99.90;;;;;;5011191;28;20903;-67
2022/10/11 01:06:50;;;;;;;7.37;1.93;;;9.60;99.90;;;;;;4998897;28;20430;-67
2022/10/11 01:09:21;;;;;;;5.45;1.55;;;9.50;1.00;;;;;;5003890;28;20459;-67
2022/10/11 01:11:52;;;;;;;3.57;2.03;;;9.50;1.00;;;;;;5022642;28;20190;-68
2022/10/11 01:15:02;;;;;;;5.50;2.07;;;9.50;1.10;;;;;;4996932;28;20473;-69
2022/10/11 01:17:40;;;;;;;7.65;2.28;;;9.50;99.90;;;;;;4971524;28;20766;-68
2022/10/11 01:20:41;;;;;;;5.78;2.08;;;9.40;1.00;;;;;;4996312;28;20213;-68
2022/10/11 01:23:42;;;;;;;6.57;1.85;;;9.30;99.90;;;;;;4998556;28;20223;-67
2022/10/11 01:26:37;;;;;;;6.45;1.80;;;9.30;1.00;;;;;;5004186;28;20225;-68
2022/10/11 01:29:13;;;;;;;5.40;2.20;;;9.30;74.80;;;;;;5005985;28;20210;-68
2022/10/11 01:31:50;;;;;;;6.28;2.30;;;9.20;27.90;;;;;;4993193;28;20264;-67
2022/10/11 01:34:26;;;;;;;11.20;2.95;;;9.20;1.00;;;;;;4992057;28;20309;-68
2022/10/11 01:37:04;;;;;;;6.03;2.20;;;9.10;58.80;;;;;;4987202;28;20370;-67
2022/10/11 01:39:37;;;;;;;8.77;2.17;;;9.00;1.00;;;;;;5007763;28;20200;-68
2022/10/11 01:42:09;;;;;;;10.50;1.60;;;9.00;1.00;;;;;;4997397;28;20199;-67
2022/10/11 01:44:39;;;;;;;4.03;1.90;;;9.00;99.90;;;;;;5000400;28;20615;-68
2022/10/11 01:47:09;;;;;;;4.47;3.28;;;9.00;99.90;;;;;;4993895;28;20209;-68
2022/10/11 01:49:38;;;;;;;11.80;1.90;;;9.00;1.00;;;;;;5006906;28;20194;-68
2022/10/11 01:52:37;;;;;;;7.78;2.03;;;8.90;1.00;;;;;;4992667;28;20695;-68
2022/10/11 01:55:52;;;;;;;6.10;1.73;;;8.80;99.90;;;;;;4991462;28;20244;-66
2022/10/11 01:58:47;;;;;;;7.30;1.85;;;8.70;99.90;;;;;;5022599;28;20229;-68
2022/10/11 02:01:22;;;;;;;9.68;1.75;;;8.70;99.90;;;;;;4995256;28;20202;-68
2022/10/11 02:04:01;;;;;;;3.42;2.00;;;8.60;99.90;;;;;;5001791;28;20193;-66
2022/10/11 02:06:36;;;;;;;6.95;2.22;;;8.50;99.90;;;;;;4995340;28;20207;-68
2022/10/11 02:09:12;;;;;;;10.82;3.17;;;8.50;99.90;;;;;;4992270;28;20234;-66
2022/10/11 02:11:41;;;;;;;5.53;2.10;;;8.50;99.90;;;;;;4992691;28;20430;-68
2022/10/11 02:14:12;;;;;;;5.70;1.98;;;8.50;99.90;;;;;;4996440;28;20253;-67
2022/10/11 02:16:46;;;;;;;2.72;1.55;;;8.40;99.90;;;;;;4992128;28;20214;-67
2022/10/11 02:19:20;;;;;;;4.78;1.40;;;8.40;99.90;;;;;;4992222;28;20183;-68
2022/10/11 02:21:56;;;;;;;4.00;2.05;;;8.30;99.90;;;;;;5000021;28;20251;-68
2022/10/11 02:24:28;;;;;;;8.77;2.15;;;8.30;99.90;;;;;;5001718;28;20560;-69
2022/10/11 02:26:59;;;;;;;7.78;1.52;;;8.40;99.90;;;;;;5004585;28;20199;-67
2022/10/11 02:29:32;;;;;;;6.32;1.35;;;8.30;99.90;;;;;;5005620;28;20222;-67
2022/10/11 02:32:01;;;;;;;9.10;1.85;;;8.30;99.90;;;;;;4990697;28;20784;-67
2022/10/11 02:34:35;;;;;;;8.75;2.10;;;8.30;99.90;;;;;;4997455;28;20669;-67
2022/10/11 02:37:09;;;;;;;6.05;2.53;;;8.20;99.90;;;;;;5009254;28;20676;-68
2022/10/11 02:39:42;;;;;;;9.02;2.38;;;8.20;99.90;;;;;;4990827;28;20209;-68
2022/10/11 02:42:17;;;;;;;7.60;2.45;;;8.10;99.90;;;;;;4992237;28;20179;-67
2022/10/11 02:44:52;;;;;;;5.78;2.13;;;8.20;99.90;;;;;;5006431;28;20257;-67
2022/10/11 02:47:21;;;;;;;3.63;1.67;;;8.10;99.90;;;;;;5003336;28;20186;-67
2022/10/11 02:49:53;;;;;;;13.15;2.30;;;8.00;99.90;;;;;;4998617;28;20212;-66
2022/10/11 02:52:22;;;;;;;13.75;3.17;;;7.90;99.90;;;;;;5002075;28;20887;-67
2022/10/11 02:54:50;;;;;;;15.05;2.72;;;7.90;99.90;;;;;;4998682;28;20613;-68
2022/10/11 02:57:19;;;;;;;5.65;2.28;;;8.00;99.90;;;;;;4997461;28;20206;-67
2022/10/11 02:59:47;;;;;;;9.07;2.20;;;8.00;99.90;;;;;;4991733;28;20542;-69
2022/10/11 03:02:16;;;;;;;9.70;2.55;;;8.00;99.90;;;;;;4994484;28;20185;-68
2022/10/11 03:04:44;;;;;;;8.70;2.55;;;8.00;99.90;;;;;;5004639;28;20218;-68
2022/10/11 03:07:14;;;;;;;7.03;2.50;;;8.10;99.90;;;;;;4991745;28;20193;-67
2022/10/11 03:09:44;;;;;;;10.18;2.40;;;8.10;99.90;;;;;;4999296;28;20204;-68
2022/10/11 03:12:12;;;;;;;6.43;1.45;;;8.10;99.90;;;;;;4995545;28;20190;-68
2022/10/11 03:14:40;;;;;;;12.27;2.42;;;8.00;99.90;;;;;;5003209;28;20292;-68
2022/10/11 03:17:09;;;;;;;8.80;2.13;;;8.00;99.90;;;;;;5005699;28;20214;-66
2022/10/11 03:19:57;;;;;;;13.18;2.90;;;7.90;99.90;;;;;;4999412;28;20204;-68
2022/10/11 03:22:27;;;;;;;3.70;1.65;;;7.90;99.90;;;;;;4997760;28;20229;-68
2022/10/11 03:24:56;;;;;;;7.10;2.13;;;8.00;99.90;;;;;;4999418;28;20222;-67
2022/10/11 03:27:31;;;;;;;6.93;1.63;;;8.00;99.90;;;;;;5002864;28;20186;-67
2022/10/11 03:29:59;;;;;;;7.97;2.17;;;8.00;99.90;;;;;;5001854;28;20198;-67
2022/10/11 03:32:28;;;;;;;3.33;1.90;;;7.90;99.90;;;;;;5014562;28;20186;-67
2022/10/11 03:35:10;;;;;;;8.82;2.13;;;7.80;99.90;;;;;;5006803;28;20222;-68
2022/10/11 03:37:40;;;;;;;10.63;1.85;;;7.80;99.90;;;;;;4993780;28;20737;-68
2022/10/11 03:40:11;;;;;;;6.45;2.85;;;7.80;99.90;;;;;;5007150;28;20237;-68
2022/10/11 03:42:39;;;;;;;7.07;2.40;;;7.80;99.90;;;;;;5012282;28;20545;-71
2022/10/11 03:45:09;;;;;;;9.05;2.90;;;7.90;99.90;;;;;;5015015;28;20677;-68
2022/10/11 03:47:39;;;;;;;5.30;2.78;;;7.80;99.90;;;;;;5013001;28;20610;-68
2022/10/11 03:50:09;;;;;;;13.95;2.33;;;7.80;99.90;;;;;;5007823;28;20191;-69
2022/10/11 03:52:39;;;;;;;8.60;2.50;;;7.80;99.90;;;;;;4999862;28;20206;-68
2022/10/11 03:55:08;;;;;;;8.57;2.50;;;7.80;99.90;;;;;;4995181;28;20755;-69
2022/10/11 03:57:37;;;;;;;12.13;2.20;;;7.80;99.90;;;;;;5008392;28;20206;-67
2022/10/11 04:00:07;;;;;;;6.38;1.90;;;7.80;99.90;;;;;;5008560;28;20669;-69
2022/10/11 04:02:35;;;;;;;5.47;2.25;;;7.70;99.90;;;;;;5013066;28;20178;-67
2022/10/11 04:05:07;;;;;;;5.20;2.33;;;7.70;99.90;;;;;;4994814;28;20277;-68
2022/10/11 04:07:35;;;;;;;21.80;4.18;;;7.70;99.90;;;;;;4995200;28;20679;-67
2022/10/11 04:10:06;;;;;;;6.18;3.00;;;7.60;99.90;;;;;;5002105;28;20213;-68
2022/10/11 04:12:36;;;;;;;5.28;2.65;;;7.70;99.90;;;;;;4995354;28;20193;-66
2022/10/11 04:15:06;;;;;;;8.18;2.50;;;7.60;99.90;;;;;;5011001;28;20787;-67
2022/10/11 04:17:34;;;;;;;16.02;2.40;;;7.70;99.90;;;;;;5010316;28;20216;-66
2022/10/11 04:20:03;;;;;;;18.50;4.00;;;7.70;99.90;;;;;;5004311;28;20199;-68
2022/10/11 04:22:32;;;;;;;8.65;2.95;;;7.70;99.90;;;;;;5013118;28;20182;-68
2022/10/11 04:25:00;;;;;;;6.85;2.97;;;7.70;99.90;;;;;;5005951;28;20218;-68
2022/10/11 04:27:30;;;;;;;3.33;2.53;;;7.60;99.90;;;;;;5011443;28;20693;-67
2022/10/11 04:30:22;;;;;;;11.98;3.17;;;7.60;99.90;;;;;;5012196;28;20566;-67
2022/10/11 04:33:26;;;;;;;5.53;2.15;;;7.60;99.90;;;;;;4998320;28;20199;-68
2022/10/11 04:40:01;;;;;;;15.52;4.30;;;7.60;99.90;;;;;;4989876;28;20220;-69
2022/10/11 04:42:43;;;;;;;10.82;4.00;;;7.70;99.90;;;;;;5006079;28;20190;-66
2022/10/11 04:45:11;;;;;;;14.45;3.53;;;7.70;99.90;;;;;;5014005;28;20222;-67
2022/10/11 04:47:40;;;;;;;12.40;3.38;;;7.60;99.90;;;;;;5001736;28;20195;-68
2022/10/11 04:50:09;;;;;;;14.95;4.43;;;7.60;99.90;;;;;;5007346;28;20191;-69
2022/10/11 04:52:38;;;;;;;14.13;4.13;;;7.70;99.90;;;;;;5005881;28;20214;-67
2022/10/11 04:55:07;;;;;;;11.82;3.97;;;7.70;99.90;;;;;;4994018;28;20617;-67
2022/10/11 04:57:36;;;;;;;13.10;3.13;;;7.60;99.90;;;;;;4993117;28;20198;-67
2022/10/11 05:00:07;;;;;;;10.43;3.85;;;7.60;99.90;;;;;;5005608;28;20226;-67
2022/10/11 05:02:35;;;;;;;22.58;5.13;;;7.60;99.90;;;;;;5008624;28;20728;-67
2022/10/11 05:05:04;;;;;;;11.98;4.25;;;7.60;99.90;;;;;;4994294;28;20214;-67
2022/10/11 05:07:33;;;;;;;7.60;3.63;;;7.70;99.90;;;;;;5013453;28;20681;-67
2022/10/11 05:10:01;;;;;;;10.23;3.75;;;7.70;99.90;;;;;;5007202;28;20664;-66
2022/10/11 05:12:30;;;;;;;10.70;3.92;;;7.70;99.90;;;;;;5006911;28;20657;-67
2022/10/11 05:14:59;;;;;;;8.32;4.15;;;7.60;99.90;;;;;;5006123;28;20233;-67
2022/10/11 05:17:28;;;;;;;8.32;3.45;;;7.60;99.90;;;;;;4993826;28;20197;-67
2022/10/11 05:19:57;;;;;;;20.13;4.10;;;7.60;99.90;;;;;;5012362;28;20209;-67
2022/10/11 05:22:25;;;;;;;11.00;4.20;;;7.60;99.90;;;;;;5001131;28;20666;-67
2022/10/11 05:24:54;;;;;;;9.55;3.63;;;7.60;99.90;;;;;;5001529;28;20276;-68
2022/10/11 05:27:26;;;;;;;12.05;4.43;;;7.70;99.90;;;;;;4993943;28;20568;-68
2022/10/11 05:29:54;;;;;;;10.38;4.25;;;7.70;99.90;;;;;;4996551;28;20182;-68
2022/10/11 05:32:23;;;;;;;16.13;4.72;;;7.60;99.90;;;;;;5006329;28;20201;-67
2022/10/11 05:34:56;;;;;;;10.07;3.92;;;7.70;99.90;;;;;;5014055;28;20214;-69
2022/10/11 05:37:25;;;;;;;18.00;4.28;;;7.80;99.90;;;;;;4990807;28;20203;-67
2022/10/11 05:40:32;;;;;;;14.77;3.53;;;7.80;99.90;;;;;;4995752;28;20241;-65
2022/10/11 05:43:01;;;;;;;6.50;3.60;;;7.90;99.90;;;;;;5010032;28;20254;-67
2022/10/11 05:45:31;;;;;;;15.82;5.55;;;7.80;99.90;;;;;;5006973;28;20246;-66
2022/10/11 05:47:59;;;;;;;11.48;3.95;;;7.80;99.90;;;;;;5015706;28;20199;-68
2022/10/11 05:50:29;;;;;;;13.45;4.35;;;7.80;99.90;;;;;;5013969;28;20190;-67
2022/10/11 05:52:58;;;;;;;5.00;3.28;;;7.90;99.90;;;;;;5002364;28;20582;-69
2022/10/11 05:55:26;;;;;;;10.50;4.20;;;7.90;99.90;;;;;;5005661;28;20313;-67
2022/10/11 05:57:56;;;;;;;13.50;4.35;;;8.00;99.90;;;;;;5000508;28;20222;-67
2022/10/11 06:00:25;;;;;;;16.58;4.30;;;8.00;99.90;;;;;;4998690;28;20704;-67
2022/10/11 06:02:53;;;;;;;31.55;5.60;;;8.10;99.90;;;;;;5004621;28;20277;-67
2022/10/11 06:05:22;;;;;;;21.50;4.40;;;8.10;99.90;;;;;;5010507;28;20218;-67
2022/10/11 06:07:51;;;;;;;7.95;3.72;;;8.10;99.90;;;;;;5004451;28;20260;-68
2022/10/11 06:10:22;;;;;;;10.80;4.93;;;8.10;99.90;;;;;;4993603;28;20249;-67
2022/10/11 06:12:51;;;;;;;25.92;5.30;;;8.10;99.90;;;;;;5003299;28;20232;-68
2022/10/11 06:15:19;;;;;;;5.72;3.30;;;8.20;99.90;;;;;;5010630;28;20218;-66
2022/10/11 06:17:48;;;;;;;10.35;5.05;;;8.20;99.90;;;;;;4999636;28;20285;-67
2022/10/11 06:20:18;;;;;;;22.85;7.63;;;8.20;99.90;;;;;;5000420;28;20257;-69
2022/10/11 06:22:46;;;;;;;11.13;4.13;;;8.20;99.90;;;;;;5000312;28;20195;-68
2022/10/11 06:25:39;;;;;;;16.23;4.93;;;8.30;99.90;;;;;;4998460;28;20273;-68
2022/10/11 06:28:08;;;;;;;8.55;5.55;;;8.30;99.90;;;;;;4997758;28;20199;-68
2022/10/11 06:30:38;;;;;;;17.90;5.45;;;8.30;99.90;;;;;;4999578;28;20218;-68
2022/10/11 06:33:07;;;;;;;15.23;6.40;;;8.40;99.90;;;;;;4994170;28;20624;-67
2022/10/11 06:35:36;;;;;;;11.75;4.45;;;8.40;99.90;;;;;;5009261;28;20210;-66
2022/10/11 06:38:04;;;;;;;16.63;4.55;;;8.40;99.90;;;;;;5002808;28;20291;-67
2022/10/11 06:40:34;;;;;;;13.30;5.43;;;8.50;99.90;;;;;;4992943;28;20214;-66
2022/10/11 06:43:03;;;;;;;19.45;5.57;;;8.60;99.90;;;;;;5010551;28;20228;-67
2022/10/11 06:45:31;;;;;;;12.00;4.47;;;8.60;99.90;;;;;;5003297;28;20229;-66
2022/10/11 06:48:00;;;;;;;10.82;5.10;;;8.70;99.90;;;;;;5012008;28;20194;-67
2022/10/11 06:50:29;;;;;;;13.25;5.90;;;8.80;99.90;;;;;;5011928;28;20186;-66
2022/10/11 06:53:17;;;;;;;8.77;4.72;;;8.80;99.90;;;;;;4996161;28;20202;-67
2022/10/11 06:55:47;;;;;;;11.55;6.35;;;8.90;99.90;;;;;;5007246;28;20836;-67
2022/10/11 06:58:15;;;;;;;8.82;4.50;;;9.00;99.90;;;;;;4990975;28;20306;-66
2022/10/11 07:00:44;;;;;;;15.27;5.43;;;9.10;99.90;;;;;;4992912;28;20211;-67
2022/10/11 07:03:12;;;;;;;10.48;4.82;;;9.10;99.90;;;;;;4997380;28;20202;-68
2022/10/11 07:05:41;;;;;;;8.30;4.43;;;9.10;99.90;;;;;;4993275;28;20214;-67
2022/10/11 07:08:09;;;;;;;15.73;4.63;;;9.30;99.90;;;;;;5004693;28;20206;-67
2022/10/11 07:10:38;;;;;;;13.13;3.72;;;9.30;99.90;;;;;;5011783;28;20190;-68
2022/10/11 07:13:08;;;;;;;7.20;3.83;;;9.40;99.90;;;;;;5007046;28;20570;-67
2022/10/11 07:15:44;;;;;;;10.57;4.25;;;9.60;99.90;;;;;;4992482;28;20221;-67
2022/10/11 07:18:12;;;;;;;7.83;4.80;;;9.60;99.90;;;;;;4991075;28;20203;-68
2022/10/11 07:20:41;;;;;;;8.20;4.45;;;9.70;99.90;;;;;;5009572;28;20472;-66
2022/10/11 07:23:09;;;;;;;10.60;5.85;;;9.80;99.90;;;;;;5011385;28;20190;-69
2022/10/11 07:25:38;;;;;;;12.97;3.90;;;9.80;99.90;;;;;;5006093;28;20218;-69
2022/10/11 07:28:08;;;;;;;11.57;4.10;;;9.90;99.90;;;;;;5005514;28;20430;-67
2022/10/11 07:30:39;;;;;;;9.00;4.20;;;10.00;99.90;;;;;;4998939;28;20457;-67
2022/10/11 07:33:07;;;;;;;16.83;5.23;;;10.00;99.90;;;;;;5003598;28;20236;-67
2022/10/11 07:35:36;;;;;;;9.10;3.80;;;10.00;99.90;;;;;;5011470;28;21009;-67
2022/10/11 07:38:06;;;;;;;7.67;4.80;;;10.10;99.90;;;;;;5004353;28;20437;-67
2022/10/11 07:40:41;;;;;;;9.10;4.30;;;10.00;99.90;;;;;;5011618;28;20832;-70
2022/10/11 07:43:11;;;;;;;12.30;5.33;;;10.00;99.90;;;;;;4997768;28;20512;-67
2022/10/11 07:45:41;;;;;;;4.70;3.30;;;10.00;99.90;;;;;;4991757;28;20520;-67
2022/10/11 07:48:09;;;;;;;4.90;3.47;;;10.00;99.90;;;;;;4995425;28;20449;-68
2022/10/11 07:50:38;;;;;;;13.48;4.43;;;10.00;99.90;;;;;;5013836;28;20448;-68
2022/10/11 07:53:06;;;;;;;14.47;5.03;;;10.00;99.90;;;;;;5002515;28;20596;-67
2022/10/11 07:55:38;;;;;;;15.20;6.33;;;10.00;99.90;;;;;;5002762;28;20816;-67
2022/10/11 07:58:08;;;;;;;6.33;3.70;;;10.20;99.90;;;;;;5009512;28;20870;-68
2022/10/11 08:00:41;;;;;;;15.63;4.27;;;10.20;99.90;;;;;;4996229;28;20468;-66
2022/10/11 08:03:10;;;;;;;12.00;4.13;;;10.20;99.90;;;;;;5008608;28;20455;-67
2022/10/11 08:05:38;;;;;;;7.00;5.00;;;10.20;99.90;;;;;;5001427;28;20462;-67
2022/10/11 08:08:07;;;;;;;13.43;5.03;;;10.30;99.90;;;;;;4999559;28;20429;-68
2022/10/11 08:10:38;;;;;;;4.30;3.60;;;10.40;99.90;;;;;;4995640;28;20785;-68
2022/10/11 08:13:06;;;;;;;11.13;3.80;;;10.50;99.90;;;;;;5001623;28;20782;-66
2022/10/11 08:15:35;;;;;;;6.63;3.63;;;10.60;99.90;;;;;;5000121;28;20513;-67
2022/10/11 08:18:10;;;;;;;10.53;3.83;;;10.90;99.90;;;;;;4994509;28;20524;-68
2022/10/11 08:21:07;;;;;;;12.10;3.57;;;11.00;65.90;;;;;;4995445;28;20501;-69
2022/10/11 08:23:36;;;;;;;12.73;4.07;;;11.30;22.90;;;;;;4994791;28;20436;-67
2022/10/11 08:26:05;;;;;;;4.80;3.30;;;11.40;26.90;;;;;;4998011;28;20518;-66
2022/10/11 08:28:35;;;;;;;16.00;4.13;;;11.40;99.90;;;;;;5000762;28;20396;-67
2022/10/11 08:31:04;;;;;;;4.33;3.10;;;11.40;99.90;;;;;;4994992;28;20500;-66
2022/10/11 08:33:45;;;;;;;11.30;3.47;;;11.40;99.90;;;;;;5001339;28;20434;-68
2022/10/11 08:36:37;;;;;;;5.83;3.23;;;11.30;99.90;;;;;;5002453;28;20464;-67
2022/10/11 08:39:06;;;;;;;5.07;2.87;;;11.40;99.90;;;;;;5003959;28;20452;-66
2022/10/11 08:41:40;;;;;;;4.07;3.03;;;11.50;99.90;;;;;;5007037;28;20490;-68
2022/10/11 08:44:20;;;;;;;7.33;2.50;;;11.60;99.90;;;;;;4999510;28;20510;-67
2022/10/11 08:46:52;;;;;;;9.03;4.00;;;11.70;99.90;;;;;;4998242;28;20480;-67
2022/10/11 08:49:32;;;;;;;8.63;2.30;;;11.80;99.90;;;;;;4996681;28;20416;-66
2022/10/11 08:52:03;;;;;;;4.63;2.70;;;11.90;99.90;;;;;;5009342;28;20415;-67
2022/10/11 08:54:39;;;;;;;7.60;3.33;;;11.90;99.90;;;;;;5003355;28;20800;-67
2022/10/11 08:57:12;;;;;;;3.30;2.10;;;12.10;99.90;;;;;;5016362;28;20960;-66
2022/10/11 08:59:45;;;;;;;6.63;2.70;;;12.10;99.90;;;;;;4999259;28;20488;-67
2022/10/11 09:02:28;;;;;;;8.40;3.57;;;12.10;99.90;;;;;;5001630;28;20784;-68
2022/10/11 09:05:19;;;;;;;12.27;3.93;;;12.20;99.90;;;;;;4996145;28;20460;-67
2022/10/11 09:07:56;;;;;;;11.40;2.17;;;12.40;99.90;;;;;;4998023;28;20935;-71
2022/10/11 09:10:55;;;;;;;10.90;4.47;;;12.50;99.90;;;;;;5003714;28;20935;-66
2022/10/11 09:13:45;;;;;;;11.83;3.30;;;12.80;99.90;;;;;;5004569;28;20475;-67
2022/10/11 09:16:24;;;;;;;5.53;2.80;;;13.00;99.90;;;;;;4994764;28;20420;-68
2022/10/11 09:19:26;;;;;;;5.97;2.40;;;13.00;99.90;;;;;;4998564;28;20440;-68
2022/10/11 09:22:06;;;;;;;9.83;2.60;;;12.90;99.90;;;;;;4993556;28;20547;-68
2022/10/11 09:24:55;;;;;;;6.57;2.80;;;12.90;99.90;;;;;;5009057;28;20801;-67
2022/10/11 09:27:30;;;;;;;8.57;3.93;;;12.90;99.90;;;;;;4992664;28;20407;-66
2022/10/11 09:30:20;;;;;;;17.80;7.23;;;13.10;99.90;;;;;;4999311;28;20658;-67
2022/10/11 09:33:01;;;;;;;14.20;7.10;;;13.20;99.90;;;;;;5003028;28;20746;-67
2022/10/11 09:35:36;;;;;;;11.80;4.57;;;13.30;99.90;;;;;;4986616;28;20496;-65
2022/10/11 09:38:13;;;;;;;10.73;3.20;;;13.40;99.90;;;;;;5000085;28;20445;-67
2022/10/11 09:40:51;;;;;;;15.17;4.47;;;13.40;99.90;;;;;;5054339;22;20496;-69
2022/10/11 09:43:19;;;;;;;8.30;3.30;;;13.50;98.20;;;;;;5050829;28;20849;-71
2022/10/11 09:45:48;;;;;;;5.93;2.33;;;13.60;97.90;;;;;;5041292;28;20430;-71
2022/10/11 09:48:20;;;;;;;16.87;3.00;;;13.80;94.30;;;;;;5046838;28;20464;-69
2022/10/11 09:50:51;;;;;;;11.57;3.83;;;13.80;94.80;;;;;;5052137;28;20407;-70
2022/10/11 09:53:21;;;;;;;10.87;2.67;;;13.80;91.70;;;;;;5051661;28;20408;-69
2022/10/11 09:55:52;;;;;;;6.73;2.60;;;13.90;90.60;;;;;;5050367;28;20645;-69
2022/10/11 09:58:30;;;;;;;10.53;2.80;;;14.00;79.60;;;;;;5033065;28;20410;-70
2022/10/11 10:01:01;;;;;;;12.03;2.33;;;14.10;78.10;;;;;;5030624;28;20430;-71
2022/10/11 10:03:37;;;;;;;11.43;2.30;;;14.20;75.60;;;;;;5030549;28;20407;-69
2022/10/11 10:06:09;;;;;;;14.10;2.80;;;14.40;75.20;;;;;;5030659;28;20418;-68
2022/10/11 10:08:38;;;;;;;8.53;2.60;;;14.40;77.20;;;;;;5030479;28;20751;-69
2022/10/11 10:11:08;;;;;;;11.23;1.83;;;14.40;52.90;;;;;;5030762;28;20427;-69
2022/10/11 10:13:45;;;;;;;5.03;1.73;;;14.40;51.90;;;;;;5030303;28;20570;-71
2022/10/11 10:16:22;;;;;;;12.40;3.33;;;14.30;50.50;;;;;;5030137;28;20468;-70
2022/10/11 10:18:54;;;;;;;6.10;1.73;;;14.30;51.20;;;;;;5030377;28;20386;-69
2022/10/11 10:21:29;;;;;;;8.27;1.83;;;14.40;48.10;;;;;;5031497;28;20438;-70
2022/10/11 10:24:02;;;;;;;11.73;3.00;;;14.60;44.70;;;;;;5031094;28;20395;-69
2022/10/11 10:26:32;;;;;;;7.80;2.73;;;14.70;43.20;;;;;;5030942;28;20909;-70
2022/10/11 10:29:05;;;;;;;5.10;2.30;;;14.80;40.20;;;;;;5042763;28;20402;-70
2022/10/11 10:31:36;;;;;;;10.03;2.83;;;14.70;37.20;;;;;;5050883;28;20411;-70
2022/10/11 10:34:29;;;;;;;2.77;1.60;;;14.90;33.60;;;;;;5049681;28;20411;-70
2022/10/11 10:37:04;;;;;;;19.63;3.27;;;14.90;30.10;;;;;;5049861;28;20774;-69
2022/10/11 10:39:40;;;;;;;8.83;2.47;;;15.10;29.70;;;;;;5049260;28;20417;-70
2022/10/11 10:42:14;;;;;;;7.47;1.63;;;14.90;24.40;;;;;;5050199;28;20460;-71
2022/10/11 10:44:42;;;;;;;6.80;1.70;;;14.90;22.20;;;;;;5052146;28;20422;-70
2022/10/11 10:47:19;;;;;;;5.90;2.80;;;14.90;22.20;;;;;;5052596;28;20436;-69
2022/10/11 10:49:57;;;;;;;4.73;1.47;;;15.20;21.50;;;;;;5052186;28;20381;-71
2022/10/11 10:52:48;;;;;;;10.97;2.33;;;15.40;18.40;;;;;;5051811;28;20390;-69
2022/10/11 10:55:25;;;;;;;6.40;1.60;;;15.50;15.00;;;;;;5050170;28;20429;-70
2022/10/11 10:58:15;;;;;;;7.70;1.67;;;15.40;13.10;;;;;;5041327;28;20621;-68
2022/10/11 11:00:48;;;;;;;7.70;2.30;;;15.40;12.10;;;;;;5011513;28;20816;-70
2022/10/11 11:03:27;;;;;;;7.43;1.70;;;15.20;10.30;;;;;;5050096;28;20420;-70
2022/10/11 11:06:01;;;;;;;10.87;1.93;;;15.20;10.00;;;;;;5034449;28;20434;-71
2022/10/11 11:08:47;;;;;;;7.73;2.30;;;15.00;6.40;;;;;;5030111;28;20443;-71
2022/10/11 11:11:36;;;;;;;5.90;2.40;;;15.10;6.50;;;;;;5019818;28;20448;-69
2022/10/11 11:14:14;;;;;;;9.57;2.10;;;15.40;5.80;;;;;;5013217;28;20905;-71
2022/10/11 11:16:48;;;;;;;11.87;2.03;;;15.80;4.00;;;;;;5050844;28;20421;-71
2022/10/11 11:19:28;;;;;;;11.70;1.93;;;15.90;3.30;;;;;;5034704;28;20489;-71
2022/10/11 11:22:04;;;;;;;6.27;1.87;;;15.60;1.00;;;;;;5032524;28;20467;-70
2022/10/11 11:24:43;;;;;;;5.17;2.27;;;15.30;1.00;;;;;;5025365;28;20404;-69
2022/10/11 11:27:26;;;;;;;2.83;1.30;;;15.10;1.00;;;;;;5026039;28;20399;-70
2022/10/11 11:30:03;;;;;;;7.83;1.73;;;14.80;1.00;;;;;;5030535;28;20919;-69
2022/10/11 11:32:42;;;;;;;7.57;2.67;;;14.80;1.00;;;;;;5037601;28;20397;-71
2022/10/11 11:35:27;;;;;;;6.40;1.87;;;14.90;1.00;;;;;;5035070;28;20846;-69
2022/10/11 11:38:03;;;;;;;10.43;2.50;;;15.10;1.00;;;;;;5033382;28;20953;-70
2022/10/11 11:40:37;;;;;;;10.27;1.63;;;15.20;1.00;;;;;;5033038;28;20410;-70
2022/10/11 11:43:21;;;;;;;5.13;1.37;;;15.30;2.00;;;;;;5034680;28;20442;-69
2022/10/11 11:45:55;;;;;;;3.90;1.10;;;15.30;1.00;;;;;;5052819;28;20457;-70
2022/10/11 11:48:29;;;;;;;4.20;1.73;;;15.00;1.00;;;;;;5055633;28;20406;-68
2022/10/11 11:51:08;;;;;;;6.80;1.50;;;14.90;1.00;;;;;;5018660;28;20621;-70
2022/10/11 11:53:51;;;;;;;4.70;1.40;;;14.60;1.00;;;;;;5030626;28;20404;-69
2022/10/11 11:56:27;;;;;;;4.13;1.20;;;14.50;1.00;;;;;;5040241;28;20519;-70
2022/10/11 11:59:05;;;;;;;9.03;1.87;;;14.60;1.00;;;;;;5035761;28;20443;-70
2022/10/11 12:01:42;;;;;;;5.60;1.23;;;14.70;1.00;;;;;;5054685;28;20416;-70
2022/10/11 12:04:19;;;;;;;4.93;1.80;;;14.70;1.00;;;;;;5054164;28;20388;-70
2022/10/11 12:07:00;;;;;;;8.67;1.87;;;14.60;1.00;;;;;;5054176;28;20979;-69
2022/10/11 12:09:49;;;;;;;6.90;1.80;;;14.40;1.00;;;;;;5031636;28;20413;-70
2022/10/11 12:12:29;;;;;;;3.00;1.80;;;14.40;1.00;;;;;;5046027;28;20427;-68
2022/10/11 12:15:19;;;;;;;1.97;1.57;;;14.30;1.00;;;;;;5043040;28;20455;-70
2022/10/11 12:18:13;;;;;;;14.07;2.30;;;14.40;1.00;;;;;;5031983;28;20442;-69
2022/10/11 12:20:43;;;;;;;7.10;1.73;;;14.40;1.00;;;;;;5026905;28;20434;-69
2022/10/11 12:23:43;;;;;;;2.83;1.20;;;14.40;1.00;;;;;;5040250;28;20493;-69
2022/10/11 12:26:43;;;;;;;13.70;1.80;;;14.60;1.00;;;;;;5037143;28;20454;-73
2022/10/11 12:29:42;;;;;;;4.90;1.87;;;14.60;1.00;;;;;;5051108;28;20631;-71
2022/10/11 12:32:52;;;;;;;11.83;1.90;;;14.60;1.00;;;;;;5036493;28;20451;-70
2022/10/11 12:35:53;;;;;;;3.73;1.67;;;14.50;1.00;;;;;;5037156;28;20494;-71
2022/10/11 12:38:28;;;;;;;14.03;2.03;;;14.60;1.00;;;;;;5037395;28;20406;-69
2022/10/11 12:40:59;;;;;;;11.47;3.00;;;14.80;1.00;;;;;;5034998;28;20440;-69
2022/10/11 12:43:36;;;;;;;10.77;3.13;;;15.00;1.00;;;;;;5032852;28;20434;-69
2022/10/11 12:46:40;;;;;;;10.33;1.83;;;15.10;1.00;;;;;;5042354;28;20479;-71
2022/10/11 12:49:27;;;;;;;8.53;1.37;;;15.40;1.00;;;;;;5042836;28;20406;-73
2022/10/11 12:52:00;;;;;;;4.37;1.20;;;15.70;1.00;;;;;;5031489;28;20825;-71
2022/10/11 12:55:11;;;;;;;4.87;1.37;;;15.80;1.00;;;;;;5041309;28;20411;-72
2022/10/11 12:58:08;;;;;;;6.83;1.40;;;16.10;1.00;;;;;;4971598;28;20412;-70
2022/10/11 13:00:45;;;;;;;7.97;1.30;;;16.30;1.00;;;;;;5012033;28;20506;-71
2022/10/11 13:03:29;;;;;;;3.97;1.00;;;16.30;1.00;;;;;;5044197;28;20484;-69
2022/10/11 13:06:00;;;;;;;2.57;1.10;;;16.20;1.00;;;;;;5048112;28;20477;-71
2022/10/11 13:08:33;;;;;;;5.33;1.70;;;16.20;1.00;;;;;;5032077;28;20414;-69
2022/10/11 13:11:05;;;;;;;5.93;1.43;;;16.20;1.00;;;;;;5033129;28;20406;-70
2022/10/11 13:13:39;;;;;;;8.87;1.70;;;16.10;1.00;;;;;;5020705;28;20951;-69
2022/10/11 13:16:12;;;;;;;4.10;1.97;;;16.10;1.00;;;;;;5029945;28;20471;-69
2022/10/11 13:18:43;;;;;;;4.27;2.07;;;16.10;1.00;;;;;;5052246;28;20940;-71
2022/10/11 13:21:24;;;;;;;4.17;1.77;;;16.00;1.00;;;;;;5032531;28;20943;-70
2022/10/11 13:23:56;;;;;;;9.87;1.10;;;15.80;1.00;;;;;;5047535;28;20441;-71
2022/10/11 13:26:28;;;;;;;6.70;1.70;;;15.90;1.00;;;;;;5043695;28;20421;-72
2022/10/11 13:28:57;;;;;;;4.87;1.47;;;15.80;1.00;;;;;;5032087;28;20498;-70
2022/10/11 13:31:25;;;;;;;8.43;2.10;;;15.80;1.00;;;;;;5032094;28;20402;-70
2022/10/11 13:33:56;;;;;;;4.93;1.60;;;15.80;1.00;;;;;;5047856;28;20817;-70